Terminal Aerodrome Forecast
Issued by NWS

Home | Current Version | Previous Version | Graphics & Text | Print | Product List | Glossary On
Versions: 1 2 3 4 5 6 7 8 9 10 11 12 13
042
FTUS42 KMHX 071138
TAFPGV
TAF
KPGV 071138Z 0712/0812 02012KT P6SM -RA OVC045
     FM071530 01016G25KT P6SM -RA OVC035
     FM080100 36013G20KT P6SM BKN050
     FM080600 35012KT P6SM SCT090
      AMD LTD TO CLD VIS AND WIND=

USA.gov is the U.S. government's official web portal to all federal, state and local government web resources and services.